Time;durP1;ratioP1;P1;durP2;ratioP2;P2;SDS_P1;SDS_P2;PMS_P1;PMS_P2;Temp;Humidity;BMP_temperature;BMP_pressure;BME280_temperature;BME280_humidity;BME280_pressure;Samples;Min_cycle;Max_cycle;Signal;HPM_P1;HPM_P2
2021/12/17 00:00:33;;;;;;;;;58.75;45.00;;;;;8.76;72.59;103119.31;5074618;28;45445;-58
2021/12/17 00:05:45;;;;;;;;;60.00;46.00;;;;;8.80;72.62;103129.00;5074893;28;45532;-55
2021/12/17 00:08:12;;;;;;;;;58.50;46.75;;;;;8.82;72.38;103115.72;5075452;28;45461;-58
2021/12/17 00:10:38;;;;;;;;;69.75;51.00;;;;;8.79;72.48;103119.28;5060516;28;45297;-55
2021/12/17 00:13:04;;;;;;;;;67.75;50.00;;;;;8.79;72.20;103113.97;5057360;28;46747;-52
2021/12/17 00:15:31;;;;;;;;;65.00;48.00;;;;;8.81;73.10;103109.53;5064970;28;45513;-54
2021/12/17 00:18:03;;;;;;;;;70.50;50.75;;;;;8.79;72.90;103115.75;5078135;28;45328;-52
2021/12/17 00:52:55;;;;;;;;;56.25;46.00;;;;;8.40;74.83;103114.28;5078241;28;45299;-59
2021/12/17 00:55:21;;;;;;;;;61.25;42.75;;;;;8.43;74.15;103108.94;5077266;28;45465;-60
2021/12/17 00:57:47;;;;;;;;;58.75;46.25;;;;;8.42;74.38;103096.59;5077553;28;45456;-59
2021/12/17 01:00:18;;;;;;;;;62.00;50.50;;;;;8.38;74.60;103097.50;5078324;27;45819;-56
2021/12/17 01:02:45;;;;;;;;;59.25;47.50;;;;;8.44;74.14;103100.09;5078885;28;45381;-57
2021/12/17 01:05:22;;;;;;;;;61.00;44.75;;;;;8.43;74.33;103093.03;5078248;28;46560;-60
2021/12/17 01:07:50;;;;;;;;;53.50;44.00;;;;;8.44;74.04;103100.09;5077747;28;45414;-55
2021/12/17 01:10:23;;;;;;;;;59.00;45.25;;;;;8.40;74.73;103088.63;5077314;28;45431;-57
2021/12/17 01:12:49;;;;;;;;;55.00;45.50;;;;;8.40;74.63;103095.72;5076545;28;45474;-60
2021/12/17 01:15:17;;;;;;;;;53.00;44.75;;;;;8.34;73.63;103093.09;5077384;28;45469;-57
2021/12/17 01:17:46;;;;;;;;;55.25;42.50;;;;;8.37;74.85;103090.44;5077401;28;45321;-58
2021/12/17 01:20:48;;;;;;;;;54.00;42.00;;;;;8.29;74.55;103098.41;5058857;28;45531;-56
2021/12/17 01:36:44;;;;;;;;;48.50;42.00;;;;;8.17;75.18;103096.72;5077654;28;45511;-56
2021/12/17 01:40:38;;;;;;;;;55.00;43.00;;;;;8.16;74.85;103094.94;5076031;28;45517;-59
2021/12/17 01:42:05;;;;;;;;;54.50;45.75;;;;;8.20;74.80;103096.72;5070687;28;45496;-52
2021/12/17 01:44:36;;;;;;;;;51.00;42.75;;;;;8.20;74.27;103102.00;5055961;28;45517;-57
2021/12/17 01:47:03;;;;;;;;;50.00;42.00;;;;;8.16;74.32;103092.28;5055140;28;45466;-56
2021/12/17 02:00:11;;;;;;;;;57.25;46.25;;;;;8.09;74.13;103098.53;5077328;28;45466;-61
2021/12/17 02:02:44;;;;;;;;;58.25;43.50;;;;;8.09;74.41;103087.06;5057581;28;45381;-53
2021/12/17 02:05:12;;;;;;;;;58.00;45.25;;;;;8.10;74.19;103088.81;5039431;28;45558;-57
2021/12/17 02:07:39;;;;;;;;;51.00;41.75;;;;;8.07;73.93;103094.13;5077002;28;45397;-54
2021/12/17 02:21:11;;;;;;;;;50.50;42.25;;;;;8.06;74.07;103089.69;5076845;28;45421;-60
2021/12/17 02:31:57;;;;;;;;;48.50;40.25;;;;;7.93;74.57;103091.53;5061651;28;45545;-57
2021/12/17 02:36:54;;;;;;;;;54.50;46.50;;;;;7.94;74.75;103093.28;5056834;28;45394;-60
2021/12/17 02:39:52;;;;;;;;;50.25;41.75;;;;;7.97;73.73;103098.59;5075029;28;45417;-57
2021/12/17 02:47:33;;;;;;;;;52.50;43.25;;;;;7.99;74.28;103086.22;5065789;28;45457;-57
2021/12/17 02:49:59;;;;;;;;;48.50;43.50;;;;;7.99;73.75;103087.09;5076664;28;45365;-61
2021/12/17 02:52:30;;;;;;;;;49.50;45.25;;;;;7.96;74.42;103080.94;5074849;28;45560;-61
2021/12/17 02:54:59;;;;;;;;;54.75;45.00;;;;;7.92;74.30;103071.22;5074891;28;45610;-62
2021/12/17 02:57:26;;;;;;;;;51.75;40.75;;;;;7.96;73.50;103080.94;5076819;28;45573;-58
2021/12/17 02:59:52;;;;;;;;;54.25;40.75;;;;;7.98;73.90;103073.88;5076156;28;45525;-59
2021/12/17 03:02:19;;;;;;;;;31.75;19.25;;;;;7.88;73.67;103077.44;5075756;28;45264;-53
2021/12/17 03:04:45;;;;;;;;;57.50;41.25;;;;;7.88;74.30;103072.16;5075520;28;45593;-55
2021/12/17 03:07:14;;;;;;;;;46.25;39.25;;;;;7.91;73.46;103066.81;5076211;28;45537;-55
2021/12/17 03:12:27;;;;;;;;;46.50;41.25;;;;;7.91;73.92;103067.69;5074824;28;45319;-58
2021/12/17 03:15:04;;;;;;;;;51.25;40.75;;;;;7.92;73.57;103071.22;5076770;28;45291;-53
2021/12/17 03:18:02;;;;;;;;;52.00;41.25;;;;;7.90;73.83;103052.69;5075859;28;45353;-54
2021/12/17 03:25:43;;;;;;;;;57.50;44.50;;;;;7.87;73.93;103065.09;5073274;28;45469;-54
2021/12/17 03:28:09;;;;;;;;;53.50;43.50;;;;;7.83;73.69;103064.25;5057065;28;45935;-59
2021/12/17 03:30:35;;;;;;;;;47.25;39.50;;;;;7.80;73.86;103058.03;5075627;28;46226;-59
2021/12/17 03:33:00;;;;;;;;;52.50;42.00;;;;;7.83;74.24;103063.34;5075424;28;45525;-56
2021/12/17 03:35:26;;;;;;;;;44.50;39.25;;;;;7.79;73.79;103059.81;5055913;28;45468;-51
2021/12/17 03:37:51;;;;;;;;;45.75;40.00;;;;;7.76;74.15;103070.44;5057218;28;45470;-60
2021/12/17 03:40:18;;;;;;;;;42.00;40.50;;;;;7.78;74.03;103070.44;5074729;28;45435;-54
2021/12/17 03:42:50;;;;;;;;;53.50;44.00;;;;;7.71;74.46;103064.28;5075775;28;45363;-62
2021/12/17 03:45:19;;;;;;;;;41.25;39.25;;;;;7.71;74.23;103074.00;5078385;28;45537;-53
2021/12/17 03:47:45;;;;;;;;;55.50;43.00;;;;;7.72;73.92;103074.00;5041318;28;45466;-53
2021/12/17 03:50:11;;;;;;;;;43.50;35.25;;;;;7.76;73.97;103072.22;5059436;28;46630;-62
2021/12/17 03:52:36;;;;;;;;;41.00;36.00;;;;;7.80;74.16;103079.25;5075160;28;45398;-58
2021/12/17 03:55:03;;;;;;;;;52.00;42.25;;;;;7.82;74.05;103072.19;5078539;28;45505;-59
2021/12/17 03:57:29;;;;;;;;;49.25;42.50;;;;;7.82;73.74;103077.50;5079393;28;45544;-54
2021/12/17 03:59:55;;;;;;;;;51.25;40.75;;;;;7.86;73.63;103079.22;5078865;28;45509;-53
2021/12/17 04:02:21;;;;;;;;;53.50;43.75;;;;;7.85;73.79;103082.78;5078241;28;45684;-57
2021/12/17 04:04:46;;;;;;;;;53.25;43.25;;;;;7.85;74.18;103077.47;5078354;28;45324;-52
2021/12/17 04:07:12;;;;;;;;;54.75;44.25;;;;;7.87;73.92;103073.91;5061102;28;45422;-59
2021/12/17 04:09:37;;;;;;;;;49.00;41.25;;;;;7.90;73.80;103080.97;5078851;28;46362;-62
2021/12/17 04:12:07;;;;;;;;;50.00;43.75;;;;;7.92;73.63;103076.53;5078822;28;45329;-58
2021/12/17 04:14:41;;;;;;;;;53.25;42.00;;;;;7.88;73.64;103067.72;5061674;28;45396;-63
2021/12/17 04:17:07;;;;;;;;;49.25;40.00;;;;;7.88;73.68;103069.50;5077943;28;45532;-57
2021/12/17 04:19:34;;;;;;;;;40.00;31.00;;;;;7.89;73.02;103065.97;5079054;28;45405;-59
2021/12/17 04:22:00;;;;;;;;;57.75;47.00;;;;;7.95;73.33;103068.59;5056963;28;45510;-57
2021/12/17 04:24:25;;;;;;;;;42.25;39.50;;;;;7.97;73.47;103061.50;5058215;28;45535;-59
2021/12/17 04:26:51;;;;;;;;;59.50;48.25;;;;;8.01;73.56;103063.25;5074461;28;45403;-61
2021/12/17 04:29:17;;;;;;;;;50.50;43.00;;;;;7.97;73.20;103049.13;5078950;28;45531;-60
2021/12/17 04:31:43;;;;;;;;;41.00;39.25;;;;;7.99;73.34;103055.31;5078480;28;45370;-59
2021/12/17 04:34:11;;;;;;;;;47.25;41.50;;;;;8.03;73.03;103057.94;5078787;28;45440;-61
2021/12/17 04:36:37;;;;;;;;;44.50;37.75;;;;;8.01;73.42;103042.03;5060552;28;45402;-57
2021/12/17 04:39:04;;;;;;;;;61.25;38.75;;;;;8.07;72.91;103051.72;5077279;28;45829;-55
2021/12/17 04:44:07;;;;;;;;;55.75;40.25;;;;;8.09;72.97;103055.25;5078505;28;45289;-56
2021/12/17 04:46:52;;;;;;;;;54.50;43.00;;;;;8.13;73.18;103057.88;5077505;28;45433;-62
2021/12/17 04:57:35;;;;;;;;;49.00;41.00;;;;;8.29;73.41;103048.91;5078067;28;45500;-56
2021/12/17 05:00:12;;;;;;;;;63.00;42.25;;;;;8.32;73.42;103048.00;5078131;28;46071;-61
2021/12/17 05:02:43;;;;;;;;;46.75;41.00;;;;;8.35;73.47;103045.38;5078148;28;45534;-55
2021/12/17 05:05:10;;;;;;;;;45.50;40.50;;;;;8.39;73.36;103048.88;5078463;28;45264;-55
2021/12/17 05:07:39;;;;;;;;;50.00;39.00;;;;;8.29;73.25;103037.41;5077839;28;45220;-56
2021/12/17 05:20:52;;;;;;;;;51.75;42.00;;;;;8.61;73.37;103055.78;5076666;28;45588;-56
2021/12/17 05:23:23;;;;;;;;;47.25;39.25;;;;;8.67;73.32;103061.00;5067317;28;45165;-58
2021/12/17 05:25:51;;;;;;;;;41.25;39.00;;;;;8.69;73.01;103058.34;5077847;28;45381;-57
2021/12/17 05:28:16;;;;;;;;;41.25;34.50;;;;;8.72;72.83;103053.00;5078229;28;45277;-57
2021/12/17 05:30:46;;;;;;;;;37.75;36.75;;;;;8.77;72.87;103052.09;5059707;28;45729;-56
2021/12/17 05:33:16;;;;;;;;;45.75;39.50;;;;;8.80;73.38;103052.06;5077281;28;45827;-58
2021/12/17 05:35:42;;;;;;;;;53.50;38.25;;;;;8.85;72.45;103049.34;5042528;28;45301;-62
2021/12/17 05:38:09;;;;;;;;;37.50;34.50;;;;;8.87;72.44;103055.53;5077849;28;45366;-60
2021/12/17 05:40:34;;;;;;;;;48.00;37.50;;;;;8.91;72.69;103044.00;5059172;28;45745;-57
2021/12/17 05:43:02;;;;;;;;;38.00;30.75;;;;;8.90;72.94;103036.03;5058754;28;45331;-60
2021/12/17 05:48:23;;;;;;;;;43.50;34.00;;;;;8.99;72.67;103042.16;5022482;28;45568;-55
2021/12/17 05:50:52;;;;;;;;;36.25;32.50;;;;;8.98;72.95;103044.78;5077504;28;46140;-59
2021/12/17 05:53:18;;;;;;;;;42.25;35.25;;;;;8.95;72.22;103029.78;5077411;28;45334;-53
2021/12/17 05:55:44;;;;;;;;;46.00;35.75;;;;;8.98;72.69;103045.66;5075699;27;45457;-56
2021/12/17 05:58:10;;;;;;;;;44.00;35.50;;;;;8.99;72.68;103043.94;5059019;28;45533;-52
2021/12/17 06:00:39;;;;;;;;;36.50;31.25;;;;;8.93;73.32;103036.00;5057835;28;46459;-54
2021/12/17 06:03:05;;;;;;;;;44.75;35.25;;;;;8.95;73.37;103034.22;5075829;28;45398;-57
2021/12/17 06:05:30;;;;;;;;;44.00;35.75;;;;;9.00;73.50;103045.69;5055351;28;45613;-58
2021/12/17 06:07:57;;;;;;;;;50.00;37.50;;;;;9.00;72.78;103038.59;5053377;28;45573;-55
2021/12/17 06:10:22;;;;;;;;;32.00;27.25;;;;;9.06;72.53;103038.50;5077407;28;45279;-59
2021/12/17 06:12:48;;;;;;;;;37.50;28.50;;;;;9.08;72.92;103046.47;5075758;28;45604;-54
2021/12/17 06:15:18;;;;;;;;;39.75;35.75;;;;;8.99;73.28;103030.66;5076055;28;45476;-60
2021/12/17 06:17:44;;;;;;;;;38.25;32.00;;;;;9.04;73.17;103044.75;5076066;28;45484;-58
2021/12/17 06:20:13;;;;;;;;;33.00;31.25;;;;;9.02;72.65;103042.09;5075544;28;45460;-56
2021/12/17 06:22:38;;;;;;;;;47.25;35.00;;;;;9.04;73.81;103042.97;5076922;28;45300;-56
2021/12/17 06:25:05;;;;;;;;;44.50;36.25;;;;;9.01;73.19;103044.78;5076888;28;45331;-57
2021/12/17 06:27:31;;;;;;;;;36.00;33.25;;;;;9.04;73.54;103050.94;5075607;28;45540;-57
2021/12/17 06:29:57;;;;;;;;;39.50;36.25;;;;;9.03;73.65;103045.63;5076471;28;45508;-56
2021/12/17 06:32:24;;;;;;;;;35.00;30.75;;;;;9.03;73.72;103048.28;5077296;28;45438;-60
2021/12/17 06:34:50;;;;;;;;;35.25;31.75;;;;;9.10;72.81;103052.63;5077326;28;45348;-63
2021/12/17 06:37:16;;;;;;;;;48.50;35.25;;;;;9.13;73.79;103049.97;5077420;28;45478;-59
2021/12/17 06:39:42;;;;;;;;;40.50;33.75;;;;;9.13;72.60;103044.66;5057851;28;45517;-58
2021/12/17 06:42:08;;;;;;;;;41.75;31.50;;;;;9.14;73.47;103051.72;5076162;28;45507;-59
2021/12/17 06:44:34;;;;;;;;;41.25;35.75;;;;;9.16;72.82;103044.63;5076803;28;45374;-60
2021/12/17 06:47:08;;;;;;;;;36.75;36.50;;;;;9.14;73.86;103057.03;5076500;28;45535;-59
2021/12/17 06:59:54;;;;;;;;;47.00;38.00;;;;;9.18;73.48;103061.41;5075894;28;45392;-58
2021/12/17 07:10:50;;;;;;;;;42.75;35.75;;;;;9.26;74.04;103054.25;5030684;28;45888;-60
2021/12/17 07:22:00;;;;;;;;;42.00;35.25;;;;;9.31;73.32;103060.38;5073092;28;45440;-60
2021/12/17 07:33:05;;;;;;;;;39.75;33.25;;;;;9.32;73.15;103062.13;5074533;28;45461;-59
2021/12/17 07:35:45;;;;;;;;;42.25;35.75;;;;;9.32;73.32;103062.13;5075730;28;45316;-56
2021/12/17 07:40:56;;;;;;;;;20.75;17.00;;;;;9.34;73.08;103064.75;5076240;28;45445;-55
2021/12/17 07:43:28;;;;;;;;;45.75;35.50;;;;;9.44;73.95;103077.91;5075513;28;46196;-59
2021/12/17 07:45:56;;;;;;;;;41.00;33.00;;;;;9.45;73.58;103074.34;5076155;28;45414;-54
2021/12/17 07:48:22;;;;;;;;;42.00;32.50;;;;;9.44;74.16;103072.59;5074245;27;45255;-58
2021/12/17 07:50:48;;;;;;;;;41.00;32.25;;;;;9.46;73.89;103081.44;5076268;28;45538;-54
2021/12/17 07:53:14;;;;;;;;;38.50;32.25;;;;;9.50;73.12;103086.69;5057050;28;45893;-55
2021/12/17 07:55:42;;;;;;;;;34.50;30.00;;;;;9.54;73.33;103077.81;5075102;28;45358;-57
2021/12/17 07:58:08;;;;;;;;;43.75;34.25;;;;;9.56;73.57;103076.00;5057541;28;45420;-53
2021/12/17 08:00:34;;;;;;;;;31.00;26.75;;;;;9.54;73.38;103073.38;5074260;28;45319;-57
2021/12/17 08:02:59;;;;;;;;;33.00;31.00;;;;;9.58;73.24;103076.88;5070706;28;46560;-51
2021/12/17 08:05:25;;;;;;;;;42.50;36.25;;;;;9.59;73.78;103068.00;5075254;28;45415;-57
2021/12/17 08:07:50;;;;;;;;;42.00;36.75;;;;;9.61;73.56;103075.03;5075754;28;45278;-55
2021/12/17 08:10:16;;;;;;;;;39.75;27.75;;;;;9.52;73.51;103063.69;5057494;28;45296;-59
2021/12/17 08:12:41;;;;;;;;;38.00;35.00;;;;;9.48;73.44;103053.97;5074738;28;45377;-57
2021/12/17 08:15:10;;;;;;;;;32.75;25.25;;;;;9.55;73.71;103063.63;5057558;28;45235;-60
2021/12/17 08:25:45;;;;;;;;;29.50;24.50;;;;;9.37;73.86;103049.66;5075800;28;45352;-56
2021/12/17 08:28:12;;;;;;;;;26.25;26.25;;;;;9.53;74.40;103076.06;5075698;28;45350;-53
2021/12/17 08:30:39;;;;;;;;;43.50;38.00;;;;;9.53;73.77;103076.94;5058673;28;45449;-54
2021/12/17 08:33:06;;;;;;;;;42.25;34.00;;;;;9.52;74.30;103071.66;5078303;28;45480;-53
2021/12/17 08:35:33;;;;;;;;;38.25;28.50;;;;;9.55;74.17;103080.44;5078964;28;45436;-54
2021/12/17 08:37:59;;;;;;;;;26.75;24.25;;;;;9.55;74.48;103076.91;5061409;28;45357;-52
2021/12/17 08:40:26;;;;;;;;;30.75;27.75;;;;;9.61;74.14;103084.78;5060933;28;45317;-57
2021/12/17 08:42:53;;;;;;;;;30.50;24.75;;;;;9.61;73.32;103085.66;5060558;28;45344;-58
2021/12/17 08:45:19;;;;;;;;;34.25;25.00;;;;;9.61;74.11;103085.66;5059839;28;45644;-53
2021/12/17 08:47:44;;;;;;;;;33.00;24.00;;;;;9.60;74.29;103075.94;5078375;28;45306;-56
2021/12/17 08:50:12;;;;;;;;;31.25;26.25;;;;;9.59;74.56;103076.84;5079037;28;45198;-58
2021/12/17 08:52:37;;;;;;;;;30.25;28.50;;;;;9.64;74.67;103074.16;5077850;28;45455;-53
2021/12/17 08:55:04;;;;;;;;;43.00;32.75;;;;;9.64;73.98;103083.00;5078111;28;45523;-57
2021/12/17 08:57:30;;;;;;;;;32.00;27.50;;;;;9.61;74.33;103066.19;5077831;28;45533;-60
2021/12/17 08:59:57;;;;;;;;;37.25;30.50;;;;;9.60;74.79;103073.28;5078605;28;45395;-58
2021/12/17 09:02:24;;;;;;;;;31.50;27.50;;;;;9.61;74.55;103085.66;5078202;28;45533;-57
2021/12/17 09:04:50;;;;;;;;;27.00;23.75;;;;;9.63;74.17;103088.31;5078304;28;45394;-53
2021/12/17 09:07:16;;;;;;;;;35.25;27.50;;;;;9.64;74.68;103085.66;5059717;28;45489;-57
2021/12/17 09:09:44;;;;;;;;;25.25;22.75;;;;;9.66;73.90;103089.19;5060557;28;45346;-52
2021/12/17 09:12:10;;;;;;;;;27.50;23.25;;;;;9.68;74.53;103089.16;5078178;28;45381;-55
2021/12/17 09:14:35;;;;;;;;;28.75;25.75;;;;;9.63;74.24;103091.84;5077867;28;45532;-55
2021/12/17 09:17:01;;;;;;;;;38.25;32.50;;;;;9.66;73.95;103098.91;5060056;28;45251;-58
2021/12/17 09:19:27;;;;;;;;;33.75;29.75;;;;;9.65;73.92;103094.50;5078382;28;45402;-56
2021/12/17 09:21:52;;;;;;;;;33.75;28.50;;;;;9.68;74.49;103103.31;5077474;28;45504;-57
2021/12/17 09:24:18;;;;;;;;;30.75;26.25;;;;;9.68;74.26;103098.00;5060112;28;45366;-56
2021/12/17 09:26:43;;;;;;;;;46.00;31.75;;;;;9.69;74.59;103105.06;5078704;28;45323;-58
2021/12/17 09:29:08;;;;;;;;;29.50;25.75;;;;;9.67;74.13;103095.38;5060799;28;45575;-56
2021/12/17 09:31:35;;;;;;;;;27.75;24.25;;;;;9.71;74.35;103107.69;5078067;28;46160;-56
2021/12/17 09:34:00;;;;;;;;;31.00;28.00;;;;;9.70;74.06;103106.81;5078635;28;45308;-62
2021/12/17 09:36:26;;;;;;;;;41.25;33.25;;;;;9.75;73.90;103109.41;5078514;28;45323;-59
2021/12/17 09:38:52;;;;;;;;;32.50;29.00;;;;;9.75;74.43;103117.38;5078563;28;45651;-60
2021/12/17 09:41:21;;;;;;;;;34.75;32.25;;;;;9.76;74.80;103111.16;5077922;28;46228;-57
2021/12/17 09:43:47;;;;;;;;;34.75;29.25;;;;;9.79;74.41;103116.47;5077644;28;45478;-58
2021/12/17 09:46:14;;;;;;;;;29.50;29.50;;;;;9.75;73.94;103126.25;5077957;28;45385;-53
2021/12/17 09:48:40;;;;;;;;;39.75;34.25;;;;;9.74;74.48;103120.94;5059427;28;45537;-54
2021/12/17 09:51:07;;;;;;;;;36.50;25.25;;;;;9.78;73.44;103119.16;5077116;28;45490;-55
2021/12/17 09:53:34;;;;;;;;;33.25;27.00;;;;;9.84;74.99;103129.69;5077962;28;45373;-56
2021/12/17 09:56:00;;;;;;;;;37.25;34.50;;;;;9.88;73.91;103134.94;5078214;28;45419;-57
2021/12/17 09:58:26;;;;;;;;;44.75;37.75;;;;;9.90;73.46;103135.81;5059460;28;45578;-52
2021/12/17 10:00:51;;;;;;;;;29.25;25.75;;;;;9.78;74.66;103112.06;5077380;28;45809;-53
2021/12/17 10:03:19;;;;;;;;;41.75;36.25;;;;;9.90;74.13;103138.47;5077659;28;45172;-56
2021/12/17 10:05:45;;;;;;;;;40.00;31.25;;;;;9.89;73.99;103134.03;5059521;28;45299;-54
2021/12/17 10:08:14;;;;;;;;;37.50;32.75;;;;;9.97;74.39;103137.50;5059819;28;45646;-57
2021/12/17 10:10:42;;;;;;;;;25.25;25.25;;;;;9.96;73.37;103130.41;5077550;28;46382;-55
2021/12/17 10:13:08;;;;;;;;;29.75;29.00;;;;;10.00;74.26;103132.13;5077211;28;45293;-57
2021/12/17 10:15:36;;;;;;;;;34.25;32.75;;;;;9.93;73.06;103122.50;5077998;28;45358;-54
2021/12/17 10:18:02;;;;;;;;;33.00;30.75;;;;;9.90;73.51;103124.31;5042816;28;45493;-50
2021/12/17 10:20:33;;;;;;;;;37.50;33.00;;;;;9.93;74.24;103132.25;5076589;28;45720;-54
2021/12/17 10:23:00;;;;;;;;;42.00;32.25;;;;;9.92;74.34;103119.84;5077507;28;45346;-54
2021/12/17 10:25:28;;;;;;;;;42.25;33.25;;;;;9.96;72.98;103117.13;5059267;28;45293;-54
2021/12/17 10:27:59;;;;;;;;;39.25;33.00;;;;;9.96;73.91;103108.28;5059121;28;45366;-56
2021/12/17 10:30:27;;;;;;;;;30.75;30.75;;;;;9.99;73.07;103109.09;5077100;28;45417;-58
2021/12/17 10:32:55;;;;;;;;;37.00;34.50;;;;;9.98;73.59;103102.03;5076997;28;45399;-56
2021/12/17 10:35:23;;;;;;;;;36.00;32.50;;;;;10.00;73.21;103100.22;5059442;28;45488;-55
2021/12/17 10:37:57;;;;;;;;;40.25;34.75;;;;;10.01;73.77;103099.31;5056981;28;45644;-58
2021/12/17 10:40:55;;;;;;;;;39.50;27.25;;;;;10.05;73.49;103092.19;5071367;28;46270;-56
2021/12/17 10:43:26;;;;;;;;;41.75;30.50;;;;;10.08;73.32;103096.59;5058480;28;45284;-59
2021/12/17 10:48:32;;;;;;;;;32.50;32.25;;;;;10.07;73.01;103077.09;5077336;28;45616;-60
2021/12/17 10:51:07;;;;;;;;;24.50;24.50;;;;;10.12;72.24;103077.03;5076950;27;46210;-57
2021/12/17 10:53:33;;;;;;;;;31.75;29.75;;;;;10.07;72.37;103074.44;5058285;28;45383;-59
2021/12/17 10:55:59;;;;;;;;;29.50;24.25;;;;;10.13;71.91;103068.16;5076434;28;45493;-55
2021/12/17 10:58:25;;;;;;;;;35.25;30.25;;;;;10.20;72.16;103069.81;5077330;28;45521;-59
2021/12/17 11:00:57;;;;;;;;;36.25;31.25;;;;;10.23;71.58;103069.81;5077034;28;45396;-58
2021/12/17 11:03:23;;;;;;;;;37.25;30.25;;;;;10.26;72.18;103064.44;5059117;28;45428;-58
2021/12/17 11:05:48;;;;;;;;;38.50;33.00;;;;;10.22;72.00;103055.63;5076748;28;45440;-56
2021/12/17 11:08:30;;;;;;;;;44.25;30.75;;;;;10.28;70.92;103050.19;5077019;28;45487;-54
2021/12/17 11:11:09;;;;;;;;;35.00;33.00;;;;;10.29;71.46;103048.44;5076284;27;45427;-57
2021/12/17 11:13:57;;;;;;;;;33.50;23.75;;;;;10.38;70.88;103026.13;5059579;28;45507;-58
2021/12/17 11:16:24;;;;;;;;;35.50;27.25;;;;;10.38;71.43;103042.09;5058605;28;45255;-59
2021/12/17 11:18:50;;;;;;;;;23.00;21.50;;;;;10.38;70.72;103031.44;5058063;28;45255;-56
2021/12/17 11:21:15;;;;;;;;;37.75;31.50;;;;;10.43;71.50;103038.47;5057556;28;46016;-56
2021/12/17 11:23:41;;;;;;;;;39.25;33.00;;;;;10.47;71.52;103042.81;5076315;28;45329;-57
2021/12/17 11:26:08;;;;;;;;;46.50;34.25;;;;;10.51;70.50;103043.63;5076438;28;45169;-55
2021/12/17 11:28:34;;;;;;;;;40.50;36.75;;;;;10.48;70.55;103033.94;5076461;28;45566;-55
2021/12/17 11:30:59;;;;;;;;;36.00;33.00;;;;;10.52;70.56;103025.00;5075969;28;45643;-58
2021/12/17 11:33:25;;;;;;;;;41.50;36.00;;;;;10.54;70.59;103023.16;5075998;28;45790;-56
2021/12/17 11:35:52;;;;;;;;;35.00;33.50;;;;;10.54;69.83;103014.31;5076173;28;45443;-55
2021/12/17 11:38:28;;;;;;;;;36.75;36.00;;;;;10.60;70.07;103008.91;5076292;28;45549;-58
2021/12/17 11:41:11;;;;;;;;;39.50;36.50;;;;;10.67;69.84;103012.31;5075539;28;45291;-56
2021/12/17 11:43:54;;;;;;;;;34.25;28.25;;;;;10.68;69.51;103008.75;5076118;28;45236;-55
2021/12/17 11:46:28;;;;;;;;;43.00;36.50;;;;;10.66;68.91;102994.59;5076026;28;45411;-55
2021/12/17 11:48:57;;;;;;;;;39.75;35.25;;;;;10.74;68.81;102998.88;5074900;28;45546;-57
2021/12/17 11:51:30;;;;;;;;;41.75;34.25;;;;;10.75;68.57;102995.31;5055223;28;45296;-58
2021/12/17 11:54:10;;;;;;;;;33.75;30.25;;;;;10.77;68.40;103000.59;5037072;28;45430;-61
2021/12/17 11:56:54;;;;;;;;;42.75;33.25;;;;;10.77;67.28;102989.97;5056061;28;45420;-53
2021/12/17 11:59:30;;;;;;;;;42.00;33.75;;;;;10.75;66.75;102995.31;5055495;28;45503;-55
2021/12/17 12:02:01;;;;;;;;;35.75;30.75;;;;;10.79;67.72;102988.13;5055383;28;46117;-56
2021/12/17 12:04:32;;;;;;;;;36.25;30.00;;;;;10.82;66.66;102982.78;5037288;28;45361;-56
2021/12/17 12:07:10;;;;;;;;;43.75;34.25;;;;;10.84;66.12;102996.94;5061883;28;45469;-55
2021/12/17 12:10:05;;;;;;;;;33.00;24.75;;;;;10.74;66.48;102977.59;5078756;28;45572;-58
2021/12/17 12:12:50;;;;;;;;;18.75;16.75;;;;;10.86;66.17;102992.47;5079535;28;45353;-57
2021/12/17 12:15:28;;;;;;;;;42.00;32.75;;;;;10.87;65.54;102983.56;5079369;27;45396;-58
2021/12/17 12:18:14;;;;;;;;;30.00;27.25;;;;;10.87;66.41;102988.88;5079280;28;45239;-55
2021/12/17 12:20:50;;;;;;;;;48.75;37.50;;;;;10.91;65.17;102979.91;5079700;28;45259;-57
2021/12/17 12:23:27;;;;;;;;;26.75;24.75;;;;;10.89;65.89;102976.41;5060010;28;45445;-57
2021/12/17 12:26:05;;;;;;;;;31.00;28.25;;;;;10.92;65.04;102976.34;5078017;28;45495;-56
2021/12/17 12:28:39;;;;;;;;;38.75;32.25;;;;;10.96;64.96;102970.06;5078817;28;45468;-56
2021/12/17 12:31:05;;;;;;;;;34.75;27.50;;;;;10.96;64.64;102971.88;5061018;28;45587;-56
2021/12/17 12:33:31;;;;;;;;;44.00;36.75;;;;;11.00;64.99;102966.44;5078839;28;46214;-57
2021/12/17 12:35:57;;;;;;;;;33.00;29.75;;;;;10.98;64.32;102959.41;5079278;28;45476;-57
2021/12/17 12:38:31;;;;;;;;;34.25;31.00;;;;;11.05;64.76;102961.00;5060888;28;45358;-55
2021/12/17 12:40:58;;;;;;;;;28.25;27.25;;;;;11.03;63.69;102957.50;5060630;28;45462;-57
2021/12/17 12:43:28;;;;;;;;;29.50;22.75;;;;;11.05;64.54;102959.22;5078046;28;45619;-55
2021/12/17 12:45:54;;;;;;;;;38.00;32.25;;;;;11.15;64.85;102958.13;5078821;28;45461;-57
2021/12/17 12:48:30;;;;;;;;;39.00;28.25;;;;;11.23;64.55;102956.19;5078417;28;45378;-55
2021/12/17 12:51:17;;;;;;;;;35.75;31.00;;;;;11.30;63.84;102945.41;5060624;28;45476;-52
2021/12/17 12:54:09;;;;;;;;;30.50;21.50;;;;;11.38;63.60;102954.09;5077331;28;46220;-56
2021/12/17 12:56:38;;;;;;;;;34.25;32.00;;;;;11.30;62.94;102951.59;5078335;28;45385;-55
2021/12/17 12:59:06;;;;;;;;;31.50;28.25;;;;;11.28;63.35;102941.88;5078483;28;45314;-56
2021/12/17 13:01:32;;;;;;;;;27.75;23.25;;;;;11.21;63.09;102933.16;5078552;28;45517;-52
2021/12/17 13:03:57;;;;;;;;;34.50;29.25;;;;;11.08;63.03;102934.34;5042899;28;47735;-55
2021/12/17 13:06:23;;;;;;;;;31.25;27.00;;;;;11.12;64.13;102941.34;5060288;28;45349;-53
2021/12/17 13:08:56;;;;;;;;;16.50;15.50;;;;;11.09;63.96;102936.97;5060409;28;45391;-57
2021/12/17 13:11:23;;;;;;;;;32.75;24.50;;;;;11.15;63.77;102930.63;5078264;28;45264;-57
2021/12/17 13:13:54;;;;;;;;;29.75;26.00;;;;;11.13;63.49;102943.97;5077168;28;46116;-56
2021/12/17 13:24:16;;;;;;;;;27.75;26.50;;;;;11.06;63.84;102926.34;5077390;28;45206;-59
2021/12/17 13:26:44;;;;;;;;;31.25;24.50;;;;;11.08;63.96;102942.31;5078327;28;45342;-56
2021/12/17 13:29:14;;;;;;;;;39.50;31.75;;;;;11.08;63.53;102923.69;5077355;28;45421;-58
2021/12/17 13:32:00;;;;;;;;;27.75;26.50;;;;;11.09;62.98;102921.00;5059107;28;45639;-58
2021/12/17 13:34:42;;;;;;;;;27.75;24.00;;;;;11.08;63.49;102929.88;5077593;28;46285;-59
2021/12/17 13:37:10;;;;;;;;;29.50;27.75;;;;;11.04;63.88;102922.84;5059210;28;45313;-54
2021/12/17 13:39:54;;;;;;;;;32.50;23.00;;;;;11.04;64.42;102935.28;5059814;28;45406;-57
2021/12/17 13:42:21;;;;;;;;;34.00;31.00;;;;;11.03;63.71;102933.53;5078222;28;45384;-57
2021/12/17 13:44:49;;;;;;;;;34.50;27.50;;;;;11.01;64.49;102928.25;5039848;28;46808;-59
2021/12/17 13:47:20;;;;;;;;;38.50;27.00;;;;;10.97;64.39;102926.56;5039586;28;45465;-55
2021/12/17 13:49:53;;;;;;;;;33.50;23.50;;;;;10.92;64.78;102923.97;5057961;28;45240;-56
2021/12/17 13:52:23;;;;;;;;;28.75;24.25;;;;;10.88;64.10;102921.41;5056244;28;45596;-56
2021/12/17 13:54:50;;;;;;;;;22.50;22.50;;;;;10.84;64.10;102919.75;5057127;28;46228;-57
2021/12/17 13:57:18;;;;;;;;;34.75;24.75;;;;;10.80;64.74;102920.69;5048593;28;45387;-59
2021/12/17 13:59:45;;;;;;;;;27.00;23.75;;;;;10.79;64.65;102919.81;5078116;28;45349;-57
2021/12/17 14:02:17;;;;;;;;;22.75;21.25;;;;;10.76;64.45;102916.34;5042517;28;45403;-54
2021/12/17 14:04:58;;;;;;;;;29.50;23.25;;;;;10.73;64.42;102911.97;5073548;28;47577;-55
2021/12/17 14:07:29;;;;;;;;;26.50;22.25;;;;;10.75;64.84;102903.94;5059441;28;45641;-57
2021/12/17 14:10:01;;;;;;;;;22.25;21.00;;;;;10.73;63.96;102905.75;5077495;28;45342;-57
2021/12/17 14:12:32;;;;;;;;;33.25;26.75;;;;;10.74;64.40;102913.72;5077066;28;45509;-53
2021/12/17 14:15:08;;;;;;;;;26.25;21.00;;;;;10.71;64.28;102908.47;5058803;28;46392;-60
2021/12/17 14:17:39;;;;;;;;;26.25;23.00;;;;;10.68;64.78;102908.53;5077218;28;45332;-58
2021/12/17 14:20:14;;;;;;;;;26.25;22.25;;;;;10.62;65.58;102904.19;5077498;28;45204;-60